Time;durP1;ratioP1;P1;durP2;ratioP2;P2;SDS_P1;SDS_P2;PMS_P1;PMS_P2;Temp;Humidity;BMP_temperature;BMP_pressure;BME280_temperature;BME280_humidity;BME280_pressure;Samples;Min_cycle;Max_cycle;Signal;HPM_P1;HPM_P2
2023/06/10 00:02:19;;;;;;;9.20;7.28;;;;;;;17.83;100.00;96962.00;5090293;28;20405;-73
2023/06/10 00:04:45;;;;;;;8.10;7.10;;;;;;;17.84;100.00;96966.25;5090479;28;20402;-73
2023/06/10 00:07:11;;;;;;;8.45;7.25;;;;;;;17.81;100.00;96966.09;5090041;28;20414;-73
2023/06/10 00:09:38;;;;;;;9.02;7.07;;;;;;;17.76;100.00;96967.78;5090598;28;20516;-73
2023/06/10 00:12:06;;;;;;;8.05;6.72;;;;;;;17.73;100.00;96965.75;5090976;28;20391;-73
2023/06/10 00:14:32;;;;;;;10.15;7.30;;;;;;;17.70;100.00;96968.22;5094700;28;20397;-73
2023/06/10 00:16:59;;;;;;;8.43;7.13;;;;;;;17.71;100.00;96967.94;5094614;28;20398;-73
2023/06/10 00:19:28;;;;;;;11.73;8.05;;;;;;;17.65;100.00;96965.69;5094487;28;20863;-74
2023/06/10 00:21:54;;;;;;;9.38;7.38;;;;;;;17.62;100.00;96967.09;5094237;28;20425;-74
2023/06/10 00:24:21;;;;;;;10.50;7.75;;;;;;;17.60;100.00;96966.56;5094206;28;20401;-74
2023/06/10 00:26:47;;;;;;;7.47;6.57;;;;;;;17.59;100.00;96964.22;5093931;28;20424;-74
2023/06/10 00:29:14;;;;;;;10.55;7.60;;;;;;;17.61;100.00;96967.34;5094179;28;20554;-75
2023/06/10 00:31:40;;;;;;;11.63;7.63;;;;;;;17.54;100.00;96965.13;5094035;28;20414;-75
2023/06/10 00:34:07;;;;;;;11.30;7.03;;;;;;;17.50;100.00;96958.81;5094045;28;20914;-75
2023/06/10 00:36:35;;;;;;;10.45;7.78;;;;;;;17.48;100.00;96969.00;5093599;28;20412;-75
2023/06/10 00:39:02;;;;;;;8.87;7.50;;;;;;;17.39;100.00;96963.59;5094038;28;20405;-75
2023/06/10 00:41:29;;;;;;;10.60;7.57;;;;;;;17.34;100.00;96958.38;5093936;28;20402;-74
2023/06/10 00:43:55;;;;;;;8.32;6.93;;;;;;;17.32;100.00;96959.78;5093713;28;20433;-75
2023/06/10 00:46:23;;;;;;;8.73;7.57;;;;;;;17.28;100.00;96964.97;5093504;28;20456;-75
2023/06/10 00:48:50;;;;;;;10.30;7.43;;;;;;;17.25;100.00;96962.09;5093739;28;20751;-75
2023/06/10 00:51:17;;;;;;;11.38;7.40;;;;;;;17.24;100.00;96966.66;5093616;28;20465;-75
2023/06/10 00:53:45;;;;;;;11.45;7.90;;;;;;;17.23;100.00;96961.59;5093626;28;20905;-75
2023/06/10 00:56:13;;;;;;;7.93;7.13;;;;;;;17.21;100.00;96961.91;5093464;28;20398;-75
2023/06/10 00:58:39;;;;;;;10.52;7.63;;;;;;;17.24;100.00;96966.66;5093685;28;20857;-75
2023/06/10 01:01:05;;;;;;;10.52;8.32;;;;;;;17.22;100.00;96971.50;5093559;28;20402;-75
2023/06/10 01:03:36;;;;;;;8.88;7.25;;;;;;;17.15;100.00;96963.09;5093487;28;20429;-75
2023/06/10 01:06:11;;;;;;;9.82;7.78;;;;;;;17.12;100.00;96963.72;5093299;28;20823;-75
2023/06/10 01:08:47;;;;;;;11.57;8.43;;;;;;;17.08;100.00;96957.38;5093429;28;20394;-75
2023/06/10 01:11:19;;;;;;;10.43;7.97;;;;;;;17.02;100.00;96962.06;5093390;28;20868;-75
2023/06/10 01:13:48;;;;;;;9.50;7.32;;;;;;;17.06;100.00;96956.13;5093334;28;20930;-75
2023/06/10 01:16:14;;;;;;;11.23;8.48;;;;;;;17.01;100.00;96960.50;5093113;28;20390;-75
2023/06/10 01:18:41;;;;;;;12.43;8.40;;;;;;;16.99;100.00;96951.97;5093279;28;20390;-75
2023/06/10 01:21:09;;;;;;;9.68;7.85;;;;;;;16.99;100.00;96951.97;5093360;28;20611;-75
2023/06/10 01:23:36;;;;;;;10.27;8.25;;;;;;;17.02;100.00;96948.69;5092128;28;20410;-75
2023/06/10 01:26:09;;;;;;;10.93;8.27;;;;;;;17.01;100.00;96949.78;5092844;28;20441;-75
2023/06/10 01:28:43;;;;;;;9.27;7.95;;;;;;;17.06;100.00;96956.94;5093182;28;20409;-75
2023/06/10 01:31:23;;;;;;;9.60;8.07;;;;;;;17.06;100.00;96956.13;5093048;28;20763;-75
2023/06/10 01:33:53;;;;;;;9.40;7.72;;;;;;;16.98;100.00;96952.28;5092891;28;20701;-75
2023/06/10 01:36:21;;;;;;;9.85;7.97;;;;;;;16.91;100.00;96949.25;5092307;28;20899;-75
2023/06/10 01:38:52;;;;;;;10.23;7.88;;;;;;;16.87;100.00;96951.72;5093077;28;20398;-75
2023/06/10 01:41:21;;;;;;;9.52;8.07;;;;;;;16.89;100.00;96946.09;5092929;28;20402;-75
2023/06/10 01:43:47;;;;;;;9.63;8.30;;;;;;;16.84;100.00;96952.31;5092791;28;20398;-75
2023/06/10 01:46:14;;;;;;;8.75;7.28;;;;;;;16.83;100.00;96955.31;5092529;28;20402;-75
2023/06/10 01:48:42;;;;;;;10.20;7.67;;;;;;;16.83;100.00;96961.44;5092885;28;20390;-75
2023/06/10 01:51:08;;;;;;;9.40;7.40;;;;;;;16.78;100.00;96960.75;5107818;22;20446;-73
2023/06/10 01:53:34;;;;;;;9.52;7.43;;;;;;;16.81;100.00;96960.94;5092463;28;20406;-74
2023/06/10 01:56:02;;;;;;;9.15;7.50;;;;;;;16.75;100.00;96962.16;5092243;28;20489;-74
2023/06/10 01:58:28;;;;;;;13.90;8.25;;;;;;;16.76;100.00;96965.63;5092370;28;20863;-74
2023/06/10 02:00:54;;;;;;;11.30;8.02;;;;;;;16.70;100.00;96970.25;5092431;28;20433;-73
2023/06/10 02:03:20;;;;;;;9.43;7.47;;;;;;;16.74;100.00;96970.47;5092111;28;20438;-74
2023/06/10 02:05:47;;;;;;;8.70;6.95;;;;;;;16.68;100.00;96969.00;5092156;28;20406;-74
2023/06/10 02:08:13;;;;;;;10.40;7.43;;;;;;;16.67;100.00;96970.09;5084346;28;20427;-74
2023/06/10 02:10:40;;;;;;;9.50;7.72;;;;;;;16.61;100.00;96972.84;5071880;28;20895;-74
2023/06/10 02:13:08;;;;;;;8.57;7.60;;;;;;;16.61;100.00;96962.16;5071886;28;20408;-74
2023/06/10 02:15:34;;;;;;;12.57;8.30;;;;;;;16.56;100.00;96970.25;5071695;28;20407;-74
2023/06/10 02:18:01;;;;;;;8.70;7.32;;;;;;;16.55;100.00;96978.56;5071700;28;20414;-74
2023/06/10 02:20:27;;;;;;;11.82;7.68;;;;;;;16.60;100.00;96970.47;5071745;28;20470;-74
2023/06/10 02:22:53;;;;;;;9.48;7.28;;;;;;;16.52;100.00;96973.84;5071599;28;20431;-74
2023/06/10 02:25:19;;;;;;;10.05;7.60;;;;;;;16.51;100.00;96973.06;5071543;28;20753;-74
2023/06/10 02:27:46;;;;;;;10.35;7.05;;;;;;;16.47;100.00;96974.72;5071553;28;20960;-74
2023/06/10 02:30:15;;;;;;;8.30;7.00;;;;;;;16.42;100.00;96972.16;5071615;28;20399;-74
2023/06/10 02:32:41;;;;;;;7.88;6.97;;;;;;;16.41;100.00;96975.91;5071396;28;20402;-74
2023/06/10 02:35:08;;;;;;;9.38;7.25;;;;;;;16.40;100.00;96970.88;5071365;28;20422;-74
2023/06/10 02:37:34;;;;;;;11.17;7.70;;;;;;;16.42;100.00;96972.16;5071360;28;20495;-74
2023/06/10 02:40:00;;;;;;;8.30;7.07;;;;;;;16.37;100.00;96974.16;5069989;28;20404;-74
2023/06/10 02:42:26;;;;;;;8.90;7.45;;;;;;;16.32;100.00;96977.69;5071060;28;20396;-74
2023/06/10 02:44:52;;;;;;;9.13;7.23;;;;;;;16.37;100.00;96982.16;5071342;28;20937;-74
2023/06/10 02:47:20;;;;;;;8.45;7.13;;;;;;;16.33;100.00;96984.63;5070844;28;20431;-74
2023/06/10 02:49:46;;;;;;;9.55;7.32;;;;;;;16.33;100.00;96992.66;5070918;28;20486;-74
2023/06/10 02:52:12;;;;;;;9.65;7.10;;;;;;;16.26;100.00;96986.91;5071024;28;20407;-74
2023/06/10 02:54:39;;;;;;;9.40;7.57;;;;;;;16.25;100.00;96990.66;5071064;28;20400;-75
2023/06/10 02:57:06;;;;;;;9.27;7.20;;;;;;;16.22;100.00;96994.72;5070841;28;20461;-74
2023/06/10 02:59:32;;;;;;;10.40;7.15;;;;;;;16.20;100.00;96993.44;5071115;28;20454;-74
2023/06/10 03:02:01;;;;;;;8.43;7.45;;;;;;;16.19;100.00;96983.84;5070799;28;20439;-74
2023/06/10 03:04:29;;;;;;;9.05;7.10;;;;;;;16.19;100.00;96987.31;5070872;28;20411;-74
2023/06/10 03:06:55;;;;;;;10.57;7.88;;;;;;;16.17;100.00;96983.34;5070675;28;20728;-74
2023/06/10 03:09:22;;;;;;;8.90;7.40;;;;;;;16.10;100.00;96988.28;5070811;28;20407;-74
2023/06/10 03:11:48;;;;;;;9.93;7.20;;;;;;;16.08;100.00;96993.94;5070663;28;20487;-74
2023/06/10 03:14:14;;;;;;;9.10;6.90;;;;;;;16.03;100.00;96996.69;5070801;28;20753;-74
2023/06/10 03:16:40;;;;;;;11.23;7.77;;;;;;;16.05;100.00;96994.53;5070517;28;20408;-75
2023/06/10 03:19:07;;;;;;;8.85;7.20;;;;;;;15.98;100.00;96994.13;5070788;28;20884;-74
2023/06/10 03:21:34;;;;;;;11.20;7.25;;;;;;;15.97;100.00;97000.53;5070691;28;20773;-74
2023/06/10 03:24:01;;;;;;;9.47;7.50;;;;;;;15.92;100.00;96997.19;5070636;28;20487;-75
2023/06/10 03:26:27;;;;;;;8.67;6.97;;;;;;;15.93;100.00;97009.44;5070494;28;20841;-75
2023/06/10 03:28:54;;;;;;;10.27;7.43;;;;;;;15.89;100.00;97009.22;5070543;28;20403;-75
2023/06/10 03:31:20;;;;;;;8.70;7.30;;;;;;;15.84;100.00;97012.00;5070526;28;20882;-74
2023/06/10 03:33:46;;;;;;;9.68;7.40;;;;;;;15.80;100.00;97017.09;5070487;28;20464;-75
2023/06/10 03:36:12;;;;;;;8.90;7.43;;;;;;;15.79;100.00;97026.19;5070231;28;20806;-75
2023/06/10 03:38:40;;;;;;;11.90;7.70;;;;;;;15.80;100.00;97021.66;5070450;28;20411;-74
2023/06/10 03:41:06;;;;;;;10.48;8.20;;;;;;;15.81;100.00;97023.25;5070396;28;20408;-74
2023/06/10 03:43:33;;;;;;;10.15;7.07;;;;;;;15.79;100.00;97028.88;5070448;28;20462;-74
2023/06/10 03:45:59;;;;;;;9.07;7.80;;;;;;;15.77;100.00;97024.94;5070266;28;20434;-75
2023/06/10 03:48:25;;;;;;;9.77;7.57;;;;;;;15.75;100.00;97033.22;5069925;28;20399;-75
2023/06/10 03:50:52;;;;;;;9.27;7.50;;;;;;;15.77;100.00;97028.38;5070252;28;20436;-75
2023/06/10 03:53:18;;;;;;;9.93;7.63;;;;;;;15.75;100.00;97030.53;5070416;28;20765;-74
2023/06/10 03:55:46;;;;;;;10.60;8.30;;;;;;;15.80;100.00;97030.44;5070177;28;20403;-74
2023/06/10 03:58:15;;;;;;;9.77;8.03;;;;;;;15.78;100.00;97034.53;5070319;28;20768;-74
2023/06/10 04:00:41;;;;;;;9.67;7.77;;;;;;;15.81;100.00;97032.03;5070275;28;20415;-74
2023/06/10 04:03:08;;;;;;;10.30;7.50;;;;;;;15.85;100.00;97032.25;5070165;28;20399;-74
2023/06/10 04:05:35;;;;;;;10.05;7.82;;;;;;;15.85;100.00;97030.38;5070130;28;20955;-74
2023/06/10 04:08:01;;;;;;;9.32;7.55;;;;;;;15.85;100.00;97035.72;5070203;28;20901;-74
2023/06/10 04:10:27;;;;;;;9.47;7.60;;;;;;;15.85;100.00;97043.72;5070249;28;20396;-74
2023/06/10 04:12:55;;;;;;;10.40;7.80;;;;;;;15.86;100.00;97029.28;5070247;28;20407;-74
2023/06/10 04:15:21;;;;;;;8.93;7.57;;;;;;;15.90;100.00;97031.38;5069976;28;20402;-74
2023/06/10 04:17:49;;;;;;;8.48;6.97;;;;;;;15.88;100.00;97037.78;5070136;28;20777;-74
2023/06/10 04:20:15;;;;;;;9.25;7.80;;;;;;;15.90;100.00;97029.50;5070230;28;20399;-74
2023/06/10 04:22:41;;;;;;;9.05;7.75;;;;;;;15.95;100.00;97031.28;5070008;28;20779;-74
2023/06/10 04:25:09;;;;;;;10.10;7.80;;;;;;;15.97;100.00;97032.56;5069972;28;20404;-74
2023/06/10 04:27:35;;;;;;;9.07;7.45;;;;;;;15.99;100.00;97038.41;5069931;28;20403;-74
2023/06/10 04:30:04;;;;;;;10.57;8.20;;;;;;;16.02;100.00;97024.47;5069766;28;20427;-74
2023/06/10 04:32:30;;;;;;;10.13;7.80;;;;;;;16.06;100.00;97033.47;5068407;28;20498;-74
2023/06/10 04:34:56;;;;;;;9.18;7.82;;;;;;;16.10;100.00;97044.34;5069896;28;20395;-74
2023/06/10 04:37:22;;;;;;;10.55;7.93;;;;;;;16.13;100.00;97041.91;5069629;28;20419;-74
2023/06/10 04:39:48;;;;;;;8.82;7.53;;;;;;;16.18;100.00;97038.34;5069782;28;20745;-74
2023/06/10 04:42:15;;;;;;;9.05;7.38;;;;;;;16.24;100.00;97035.28;5069587;28;20402;-74
2023/06/10 04:44:41;;;;;;;12.02;7.85;;;;;;;16.29;100.00;97038.94;5069787;28;20408;-74
2023/06/10 04:47:09;;;;;;;8.60;7.15;;;;;;;16.34;100.00;97042.31;5069517;28;20388;-74
2023/06/10 04:49:35;;;;;;;8.10;7.17;;;;;;;16.40;100.00;97041.13;5069778;28;20738;-74
2023/06/10 04:52:04;;;;;;;9.10;7.85;;;;;;;16.44;100.00;97044.81;5069532;28;20605;-74
2023/06/10 04:54:30;;;;;;;8.80;7.57;;;;;;;16.51;100.00;97047.88;5069437;28;20435;-74
2023/06/10 04:56:56;;;;;;;9.23;7.72;;;;;;;16.58;100.00;97055.47;5069335;28;20916;-74
2023/06/10 04:59:22;;;;;;;8.85;7.15;;;;;;;16.67;100.00;97050.28;5070703;28;20430;-74
2023/06/10 05:01:48;;;;;;;8.90;7.10;;;;;;;16.78;100.00;97055.09;5073211;28;20418;-74
2023/06/10 05:04:16;;;;;;;7.75;6.75;;;;;;;16.89;100.00;97061.84;5073286;28;20461;-74
2023/06/10 05:06:42;;;;;;;7.43;6.47;;;;;;;17.00;100.00;97049.03;5072930;28;20400;-74
2023/06/10 05:09:09;;;;;;;7.00;5.97;;;;;;;17.11;100.00;97055.75;5073113;28;20399;-74
2023/06/10 05:11:35;;;;;;;6.47;5.55;;;;;;;17.21;100.00;97046.72;5073221;28;20406;-74
2023/06/10 05:14:01;;;;;;;7.25;6.18;;;;;;;17.30;100.00;97053.72;5072931;28;20460;-74
2023/06/10 05:16:27;;;;;;;7.60;6.32;;;;;;;17.40;100.00;97052.69;5072874;28;20398;-74
2023/06/10 05:18:54;;;;;;;10.13;7.40;;;;;;;17.47;100.00;97055.75;5072834;28;20480;-74
2023/06/10 05:21:21;;;;;;;7.60;6.60;;;;;;;17.53;100.00;97059.88;5072726;28;20403;-74
2023/06/10 05:23:47;;;;;;;8.77;7.20;;;;;;;17.59;100.00;97061.34;5072804;28;20477;-74
2023/06/10 05:26:14;;;;;;;7.50;6.43;;;;;;;17.63;100.00;97061.56;5072371;28;20825;-74
2023/06/10 05:28:40;;;;;;;8.05;6.20;;;;;;;17.69;100.00;97058.47;5072645;28;20396;-74
2023/06/10 05:31:06;;;;;;;6.88;6.03;;;;;;;17.76;100.00;97058.81;5072601;28;20528;-75
2023/06/10 05:33:32;;;;;;;6.43;5.70;;;;;;;17.83;100.00;97061.06;5072328;28;20774;-74
2023/06/10 05:35:59;;;;;;;6.77;5.50;;;;;;;17.90;100.00;97066.78;5072339;28;20407;-75
2023/06/10 05:38:26;;;;;;;6.97;5.45;;;;;;;17.98;100.00;97063.38;5072719;28;20952;-74
2023/06/10 05:40:52;;;;;;;7.57;6.00;;;;;;;18.05;100.00;97071.75;5072381;28;20463;-75
2023/06/10 05:43:18;;;;;;;6.38;5.72;;;;;;;18.09;100.00;97062.03;5070970;28;20473;-74
2023/06/10 05:45:45;;;;;;;7.28;6.00;;;;;;;18.14;100.00;97064.56;5072269;28;20432;-74
2023/06/10 05:48:11;;;;;;;5.90;5.15;;;;;;;18.17;100.00;97072.00;5072242;28;20979;-75
2023/06/10 05:50:39;;;;;;;6.80;5.53;;;;;;;18.22;100.00;97067.59;5072204;28;20403;-75
2023/06/10 05:53:08;;;;;;;6.25;5.25;;;;;;;18.25;100.00;97072.34;5072286;28;20415;-75
2023/06/10 05:55:35;;;;;;;7.45;6.25;;;;;;;18.27;100.00;97073.59;5072207;28;20461;-74
2023/06/10 05:58:02;;;;;;;6.80;5.50;;;;;;;18.27;100.00;97070.16;5072246;28;20469;-75
2023/06/10 06:00:28;;;;;;;9.00;6.75;;;;;;;18.23;100.00;97074.53;5072089;28;20410;-75
2023/06/10 06:02:55;;;;;;;7.93;5.90;;;;;;;18.24;100.00;97074.22;5072064;28;20441;-75
2023/06/10 06:05:21;;;;;;;6.40;5.60;;;;;;;18.27;100.00;97072.84;5092577;28;20400;-76
2023/06/10 06:07:47;;;;;;;9.05;5.60;;;;;;;18.31;100.00;97081.84;5078975;28;20391;-75
2023/06/10 06:10:14;;;;;;;6.32;5.40;;;;;;;18.33;100.00;97080.44;5071690;28;20893;-75
2023/06/10 06:12:41;;;;;;;6.53;5.50;;;;;;;18.38;100.00;97082.19;5071890;28;20739;-75
2023/06/10 06:15:09;;;;;;;6.78;5.70;;;;;;;18.40;100.00;97082.66;5071940;28;20400;-75
2023/06/10 06:17:35;;;;;;;6.43;5.10;;;;;;;18.44;100.00;97078.25;5071746;28;20897;-76
2023/06/10 06:20:01;;;;;;;6.47;5.50;;;;;;;18.48;100.00;97087.28;5071995;28;20423;-75
2023/06/10 06:22:27;;;;;;;7.43;6.13;;;;;;;18.51;100.00;97087.44;5071781;28;20403;-74
2023/06/10 06:24:53;;;;;;;6.57;5.05;;;;;;;18.55;100.00;97075.00;5071549;28;20457;-74
2023/06/10 06:27:20;;;;;;;7.80;5.50;;;;;;;18.58;100.00;97078.97;5071399;28;20792;-74
2023/06/10 06:29:48;;;;;;;7.32;6.00;;;;;;;18.65;100.00;97079.31;5071649;28;20410;-75
2023/06/10 06:32:14;;;;;;;6.70;5.97;;;;;;;18.70;100.00;97079.19;5071613;28;20502;-74
2023/06/10 06:34:41;;;;;;;6.73;5.60;;;;;;;18.76;100.00;97077.16;5071475;28;20987;-74
2023/06/10 06:37:07;;;;;;;7.20;5.90;;;;;;;18.81;100.00;97083.16;5071388;28;20423;-74
2023/06/10 06:39:33;;;;;;;7.13;6.32;;;;;;;18.83;100.00;97077.50;5071542;28;20439;-74
2023/06/10 06:41:59;;;;;;;7.43;6.03;;;;;;;18.89;100.00;97084.28;5071364;28;20399;-76
2023/06/10 06:44:25;;;;;;;7.90;5.90;;;;;;;18.94;100.00;97087.59;5073790;28;20403;-73
2023/06/10 06:46:53;;;;;;;9.20;6.78;;;;;;;18.89;100.00;97087.75;5074018;28;20407;-74
2023/06/10 06:49:19;;;;;;;8.30;6.57;;;;;;;18.93;100.00;97093.31;5071367;28;20410;-74
2023/06/10 06:51:45;;;;;;;6.77;5.93;;;;;;;19.02;100.00;97093.34;5071104;28;20487;-74
2023/06/10 06:54:11;;;;;;;9.95;6.55;;;;;;;19.02;100.00;97104.06;5071102;28;20411;-76
2023/06/10 06:56:38;;;;;;;11.90;6.22;;;;;;;19.06;100.00;97087.03;5071060;28;20836;-75
2023/06/10 06:59:04;;;;;;;7.22;6.00;;;;;;;19.07;100.00;97093.97;5071039;28;20798;-76
2023/06/10 07:01:33;;;;;;;7.63;5.97;;;;;;;19.11;100.00;97094.91;5071089;28;20426;-74
2023/06/10 07:04:00;;;;;;;9.37;6.30;;;;;;;19.07;100.00;97095.84;5070935;28;20396;-76
2023/06/10 07:06:27;;;;;;;8.52;5.82;;;;;;;19.19;100.00;97104.09;5071012;28;20400;-74
2023/06/10 07:08:53;;;;;;;9.33;6.70;;;;;;;19.17;100.00;97106.31;5070977;28;20399;-73
2023/06/10 07:11:20;;;;;;;7.80;5.95;;;;;;;19.24;100.00;97106.63;5071108;28;20395;-73
2023/06/10 07:13:46;;;;;;;7.00;6.10;;;;;;;19.30;100.00;97106.16;5069230;28;20990;-74
2023/06/10 07:16:12;;;;;;;9.85;7.10;;;;;;;19.30;100.00;97106.16;5069077;28;21058;-74
2023/06/10 07:18:38;;;;;;;9.65;6.07;;;;;;;19.42;100.00;97096.69;5070671;28;20447;-74
2023/06/10 07:21:06;;;;;;;6.38;5.53;;;;;;;19.48;100.00;97100.81;5081092;28;20932;-74
2023/06/10 07:23:32;;;;;;;6.30;5.32;;;;;;;19.55;100.00;97091.19;5081888;28;20483;-74
2023/06/10 07:25:58;;;;;;;5.75;5.07;;;;;;;19.65;100.00;97096.25;5090567;28;20488;-74
2023/06/10 07:28:24;;;;;;;7.70;5.20;;;;;;;19.69;100.00;97099.13;5090818;28;20390;-74
2023/06/10 07:30:51;;;;;;;8.27;6.53;;;;;;;19.74;100.00;97098.94;5091010;28;20402;-74
2023/06/10 07:33:17;;;;;;;8.82;6.18;;;;;;;19.80;100.00;97092.31;5088199;28;20933;-75
2023/06/10 07:35:43;;;;;;;7.07;5.53;;;;;;;19.85;100.00;97094.81;5089708;28;20463;-75
2023/06/10 07:38:11;;;;;;;6.35;5.47;;;;;;;19.89;100.00;97085.03;5090448;28;20489;-75
2023/06/10 07:40:37;;;;;;;8.45;5.85;;;;;;;19.90;100.00;97088.50;5090613;28;20472;-75
2023/06/10 07:43:03;;;;;;;7.10;5.80;;;;;;;19.87;100.00;97087.25;5090511;28;20444;-75
2023/06/10 07:45:30;;;;;;;7.70;6.15;;;;;;;19.90;100.00;97083.94;5090099;28;20755;-75
2023/06/10 07:47:56;;;;;;;6.05;5.13;;;;;;;20.01;100.00;97085.16;5090917;28;20394;-75
2023/06/10 07:50:22;;;;;;;6.47;5.53;;;;;;;20.05;100.00;97086.13;5104799;22;20960;-76
2023/06/10 07:52:48;;;;;;;8.40;5.47;;;;;;;20.13;100.00;97084.53;5090347;28;20451;-76
2023/06/10 07:55:16;;;;;;;6.13;5.20;;;;;;;20.21;100.00;97093.69;5089359;28;20501;-76
2023/06/10 07:57:42;;;;;;;7.13;5.68;;;;;;;20.28;100.00;97093.97;5088899;28;20414;-76
2023/06/10 08:00:09;;;;;;;6.22;5.22;;;;;;;20.37;100.00;97089.41;5089115;28;20405;-76
2023/06/10 08:02:35;;;;;;;5.50;5.00;;;;;;;20.45;100.00;97085.88;5090458;28;20405;-76
2023/06/10 08:05:02;;;;;;;7.30;5.88;;;;;;;20.53;100.00;97089.63;5090557;28;20405;-77
2023/06/10 08:07:28;;;;;;;6.65;5.78;;;;;;;20.63;100.00;97095.47;5090244;28;20513;-76
2023/06/10 08:09:54;;;;;;;8.68;6.13;;;;;;;20.69;100.00;97091.47;5090365;28;20902;-76
2023/06/10 08:12:22;;;;;;;6.72;5.63;;;;;;;20.74;100.00;97083.25;5090427;28;20811;-77
2023/06/10 08:14:48;;;;;;;8.05;5.70;;;;;;;20.84;100.00;97092.81;5090436;28;20402;-76
2023/06/10 08:17:14;;;;;;;6.73;5.57;;;;;;;20.94;100.00;97092.47;5090186;28;20420;-76
2023/06/10 08:19:40;;;;;;;8.73;5.97;;;;;;;21.01;100.00;97089.28;5090330;28;20405;-76
2023/06/10 08:22:07;;;;;;;6.95;5.95;;;;;;;21.11;100.00;97081.63;5090393;28;20405;-76
2023/06/10 08:24:33;;;;;;;6.13;5.30;;;;;;;21.20;100.00;97082.34;5090234;28;20398;-76
2023/06/10 08:27:00;;;;;;;6.40;5.50;;;;;;;21.32;100.00;97086.25;5090202;28;20494;-76
2023/06/10 08:29:27;;;;;;;7.35;5.53;;;;;;;21.42;100.00;97091.25;5090302;28;20497;-76
2023/06/10 08:31:53;;;;;;;6.65;5.65;;;;;;;21.45;100.00;97082.50;5090125;28;20493;-76
2023/06/10 08:34:20;;;;;;;8.07;6.18;;;;;;;21.59;100.00;97096.50;5093003;28;20398;-76
2023/06/10 08:36:46;;;;;;;7.55;5.60;;;;;;;21.61;100.00;97092.38;5093872;28;20891;-76
2023/06/10 08:39:12;;;;;;;5.90;5.30;;;;;;;21.68;100.00;97089.16;5093948;28;20945;-76
2023/06/10 08:41:49;;;;;;;6.65;5.30;;;;;;;21.69;100.00;97089.94;5093841;28;20401;-76
2023/06/10 08:44:22;;;;;;;8.88;5.75;;;;;;;21.53;100.00;97090.53;5094197;28;20755;-76
2023/06/10 08:46:50;;;;;;;7.10;5.55;;;;;;;21.60;100.00;97088.09;5093824;28;20416;-76
2023/06/10 08:49:20;;;;;;;7.47;5.60;;;;;;;21.69;100.00;97088.03;5093893;28;20402;-76
2023/06/10 08:51:49;;;;;;;6.03;5.38;;;;;;;21.82;100.00;97092.34;5093690;28;20465;-76
2023/06/10 08:54:21;;;;;;;6.90;5.70;;;;;;;21.93;100.00;97098.13;5093688;28;20455;-75
2023/06/10 08:56:52;;;;;;;6.65;5.20;;;;;;;21.90;100.00;97075.31;5093616;28;20397;-75
2023/06/10 08:59:19;;;;;;;6.82;5.30;;;;;;;22.05;100.00;97081.22;5093629;28;20452;-76
2023/06/10 09:01:47;;;;;;;8.32;5.43;;;;;;;22.00;100.00;97082.25;5093479;28;20740;-77
2023/06/10 09:04:16;;;;;;;7.10;5.35;;;;;;;22.16;100.00;97077.00;5093583;28;20402;-77
2023/06/10 09:06:42;;;;;;;5.97;4.82;;;;;;;22.33;100.00;97076.81;5093529;28;20881;-77
2023/06/10 09:09:08;;;;;;;7.22;5.18;;;;;;;22.44;100.00;97072.56;5093831;28;20402;-77
2023/06/10 09:11:34;;;;;;;5.57;4.73;;;;;;;22.57;100.00;97068.75;5093412;28;20531;-77
2023/06/10 09:14:02;;;;;;;8.63;4.82;;;;;;;22.70;100.00;97083.06;5093395;28;20398;-77
2023/06/10 09:16:28;;;;;;;12.15;5.20;;;;;;;22.78;100.00;97087.56;5093739;28;20451;-78
2023/06/10 09:18:55;;;;;;;5.82;4.75;;;;;;;22.91;100.00;97078.38;5094705;28;20446;-78
2023/06/10 09:21:23;;;;;;;6.30;5.13;;;;;;;23.02;100.00;97074.06;5093522;28;20394;-76
2023/06/10 09:23:49;;;;;;;6.38;4.88;;;;;;;22.94;100.00;97071.47;5094071;28;20398;-77
2023/06/10 09:26:16;;;;;;;8.93;4.82;;;;;;;22.78;90.71;97082.16;5093294;28;20879;-74
2023/06/10 09:28:44;;;;;;;7.90;5.00;;;;;;;22.84;90.63;97080.06;5093214;28;20401;-76
2023/06/10 09:31:11;;;;;;;11.05;4.65;;;;;;;22.80;88.65;97077.22;5093598;28;20404;-77
2023/06/10 09:33:41;;;;;;;6.70;4.68;;;;;;;22.89;100.00;97071.72;5094685;28;20398;-77
2023/06/10 09:36:08;;;;;;;6.40;4.75;;;;;;;23.01;100.00;97080.59;5096018;28;20537;-77
2023/06/10 09:38:35;;;;;;;8.15;4.88;;;;;;;23.15;100.00;97069.47;5094693;28;20505;-77
2023/06/10 09:41:02;;;;;;;8.68;4.97;;;;;;;23.23;100.00;97078.56;5095213;28;20977;-78
2023/06/10 09:43:42;;;;;;;6.57;4.70;;;;;;;23.19;93.02;97077.66;5093948;28;20947;-77
2023/06/10 09:46:16;;;;;;;5.30;4.25;;;;;;;23.34;93.66;97076.94;5092291;28;20829;-77
2023/06/10 09:48:43;;;;;;;9.63;4.30;;;;;;;23.45;100.00;97078.06;5093033;28;20409;-77
2023/06/10 09:51:10;;;;;;;5.20;4.40;;;;;;;23.65;100.00;97069.03;5092632;28;20974;-77
2023/06/10 09:53:38;;;;;;;5.93;4.83;;;;;;;23.74;100.00;97066.97;5092486;28;20402;-77
2023/06/10 09:56:05;;;;;;;5.32;4.60;;;;;;;23.95;100.00;97069.47;5092448;28;20402;-76
2023/06/10 09:58:35;;;;;;;7.78;4.50;;;;;;;23.87;93.46;97065.00;5092342;28;20406;-76
2023/06/10 10:01:05;;;;;;;8.82;5.47;;;;;;;23.91;100.00;97060.47;5092509;28;20401;-77
2023/06/10 10:03:31;;;;;;;5.78;4.47;;;;;;;23.90;100.00;97056.22;5092374;28;20390;-76
2023/06/10 10:06:00;;;;;;;6.18;4.07;;;;;;;24.00;100.00;97063.00;5092058;28;20500;-77
2023/06/10 10:08:26;;;;;;;4.70;4.20;;;;;;;24.13;100.00;97062.59;5092284;28;20407;-76
2023/06/10 10:10:56;;;;;;;5.35;4.80;;;;;;;24.18;100.00;97062.38;5092377;28;20411;-76
2023/06/10 10:13:24;;;;;;;4.50;4.10;;;;;;;24.37;100.00;97052.78;5092195;28;20412;-77
2023/06/10 10:15:50;;;;;;;7.80;4.65;;;;;;;24.36;99.17;97054.72;5092112;28;20479;-77
2023/06/10 10:18:25;;;;;;;6.80;5.20;;;;;;;24.46;100.00;97054.19;5094467;28;20416;-77
2023/06/10 10:20:54;;;;;;;4.90;4.40;;;;;;;24.68;100.00;97055.50;5095017;28;20455;-77
2023/06/10 10:23:26;;;;;;;6.20;4.47;;;;;;;24.89;100.00;97045.16;5092689;28;20833;-77
2023/06/10 10:25:57;;;;;;;6.68;4.95;;;;;;;24.84;93.86;97041.97;5090424;28;20471;-76
2023/06/10 10:28:30;;;;;;;5.65;4.65;;;;;;;24.97;100.00;97044.22;5090894;28;20410;-77
2023/06/10 10:31:07;;;;;;;6.07;4.45;;;;;;;25.25;98.90;97044.09;5092751;28;20401;-77
2023/06/10 10:33:42;;;;;;;4.88;4.38;;;;;;;25.33;98.43;97037.69;5092574;28;20779;-77
2023/06/10 10:36:08;;;;;;;5.10;4.60;;;;;;;25.53;100.00;97037.69;5091016;28;21220;-77
2023/06/10 10:38:35;;;;;;;6.55;4.35;;;;;;;25.71;100.00;97042.34;5092148;28;20801;-76
2023/06/10 10:41:04;;;;;;;5.40;4.50;;;;;;;25.85;96.17;97036.44;5091926;28;20864;-75
2023/06/10 10:43:31;;;;;;;5.53;4.40;;;;;;;25.98;94.07;97037.84;5090364;28;20410;-76
2023/06/10 10:46:00;;;;;;;5.10;4.10;;;;;;;26.24;97.82;97036.38;5091538;28;20394;-76
2023/06/10 10:48:33;;;;;;;5.50;4.22;;;;;;;26.34;94.00;97031.13;5091586;28;20390;-77
2023/06/10 10:50:59;;;;;;;5.63;4.40;;;;;;;26.46;94.07;97038.31;5091345;28;20432;-77
2023/06/10 10:53:25;;;;;;;4.68;3.75;;;;;;;26.50;90.91;97036.44;5091323;28;20405;-76
2023/06/10 10:55:59;;;;;;;5.50;4.70;;;;;;;26.50;86.42;97039.94;5091133;28;20426;-76
2023/06/10 10:58:27;;;;;;;6.45;4.93;;;;;;;26.31;86.01;97034.59;5091386;28;21032;-76
2023/06/10 11:00:53;;;;;;;6.60;4.45;;;;;;;26.18;93.22;97035.84;5091305;28;20398;-76
2023/06/10 11:03:19;;;;;;;5.45;4.30;;;;;;;25.94;89.51;97033.50;5091312;28;20566;-76
2023/06/10 11:05:48;;;;;;;5.27;4.60;;;;;;;25.72;93.12;97032.28;5090949;28;20401;-77
2023/06/10 11:08:35;;;;;;;9.40;5.10;;;;;;;25.69;79.59;97022.94;5089940;28;20455;-77
2023/06/10 11:11:17;;;;;;;6.97;4.77;;;;;;;25.55;85.60;97024.56;5091032;28;20398;-77
2023/06/10 11:13:59;;;;;;;6.25;4.40;;;;;;;25.42;93.32;97034.75;5089984;28;20410;-76
2023/06/10 11:16:27;;;;;;;6.35;4.72;;;;;;;25.27;97.30;97036.38;5091217;28;20451;-76
2023/06/10 11:18:55;;;;;;;4.38;3.85;;;;;;;25.26;100.00;97028.63;5092080;28;20406;-77
2023/06/10 11:21:22;;;;;;;5.10;4.32;;;;;;;25.21;94.63;97028.88;5092888;28;20494;-77
2023/06/10 11:23:50;;;;;;;7.05;4.80;;;;;;;25.27;93.40;97025.53;5091102;28;20492;-77
2023/06/10 11:26:21;;;;;;;6.90;4.95;;;;;;;25.26;85.90;97023.22;5090324;28;21214;-77